CES5402 RJTT-PHNL
Flight info
| Callsign | CES5402 |
|---|---|
| Flight time | N/A |
| Altitude | 35000 |
| Route | OPPAR DCT UTIBO Y803 POROT Y809 AVBET OTR11 LEPKI DCT 37N160E 36N170E/N0448F370 33N180W 29N170W DCT DANNO DCT BOOKE |
| Aircraft | A320/M-SDE2E3FGILRWXY/LB2 |
Departure
| Time | 2026-04-30 03:26 |
|---|---|
| Airport | Tokyo Haneda International Airport (RJTT) |
Arrival
| Time | N/A |
|---|---|
| Airport | Daniel K. Inouye International Airport (PHNL) |
| Time | Latitude | Longitude | Altitude | Speed | Heading |
|---|---|---|---|---|---|
| 2026-04-30 03:09 | 35.54909 | 139.79147 | 54 ft | 0 kts | 188° |
| 2026-04-30 03:13 | 35.54911 | 139.79147 | 27 ft | 3 kts | 188° |
| 2026-04-30 03:13 | 35.54938 | 139.79151 | 27 ft | 4 kts | 188° |
| 2026-04-30 03:13 | 35.54963 | 139.79156 | 27 ft | 2 kts | 188° |
| 2026-04-30 03:13 | 35.54985 | 139.79161 | 27 ft | 4 kts | 197° |
| 2026-04-30 03:14 | 35.55010 | 139.79167 | 27 ft | 4 kts | 162° |
| 2026-04-30 03:14 | 35.55030 | 139.79156 | 28 ft | 4 kts | 150° |
| 2026-04-30 03:14 | 35.55048 | 139.79142 | 28 ft | 0 kts | 150° |
| 2026-04-30 03:18 | 35.55040 | 139.79148 | 28 ft | 4 kts | 149° |
| 2026-04-30 03:18 | 35.55023 | 139.79184 | 28 ft | 6 kts | 92° |
| 2026-04-30 03:18 | 35.55050 | 139.79251 | 27 ft | 11 kts | 60° |
| 2026-04-30 03:18 | 35.55096 | 139.79348 | 28 ft | 15 kts | 59° |
| 2026-04-30 03:19 | 35.55116 | 139.79433 | 27 ft | 8 kts | 107° |
| 2026-04-30 03:19 | 35.55067 | 139.79480 | 27 ft | 11 kts | 149° |
| 2026-04-30 03:19 | 35.54992 | 139.79534 | 27 ft | 15 kts | 149° |
| 2026-04-30 03:19 | 35.54891 | 139.79606 | 26 ft | 19 kts | 149° |
| 2026-04-30 03:20 | 35.54769 | 139.79692 | 29 ft | 22 kts | 150° |
| 2026-04-30 03:20 | 35.54626 | 139.79794 | 24 ft | 25 kts | 150° |
| 2026-04-30 03:20 | 35.54470 | 139.79904 | 22 ft | 27 kts | 150° |
| 2026-04-30 03:20 | 35.54304 | 139.80022 | 22 ft | 28 kts | 150° |
| 2026-04-30 03:21 | 35.54135 | 139.80142 | 23 ft | 28 kts | 150° |
| 2026-04-30 03:21 | 35.53994 | 139.80242 | 23 ft | 18 kts | 150° |
| 2026-04-30 03:21 | 35.53900 | 139.80294 | 25 ft | 13 kts | 184° |
| 2026-04-30 03:21 | 35.53839 | 139.80203 | 22 ft | 13 kts | 239° |
| 2026-04-30 03:22 | 35.53758 | 139.80179 | 20 ft | 14 kts | 173° |
| 2026-04-30 03:22 | 35.53662 | 139.80193 | 24 ft | 13 kts | 171° |
| 2026-04-30 03:22 | 35.53583 | 139.80242 | 28 ft | 15 kts | 149° |
| 2026-04-30 03:22 | 35.53466 | 139.80324 | 32 ft | 24 kts | 150° |
| 2026-04-30 03:23 | 35.53306 | 139.80438 | 39 ft | 27 kts | 150° |
| 2026-04-30 03:23 | 35.53146 | 139.80551 | 46 ft | 26 kts | 150° |
| 2026-04-30 03:23 | 35.53031 | 139.80632 | 48 ft | 16 kts | 150° |
| 2026-04-30 03:23 | 35.52936 | 139.80649 | 48 ft | 15 kts | 217° |
| 2026-04-30 03:24 | 35.52854 | 139.80557 | 48 ft | 17 kts | 222° |
| 2026-04-30 03:24 | 35.52759 | 139.80450 | 49 ft | 20 kts | 222° |
| 2026-04-30 03:24 | 35.52654 | 139.80333 | 50 ft | 21 kts | 223° |
| 2026-04-30 03:24 | 35.52560 | 139.80227 | 50 ft | 13 kts | 221° |
| 2026-04-30 03:25 | 35.52484 | 139.80260 | 50 ft | 14 kts | 133° |
| 2026-04-30 03:25 | 35.52434 | 139.80326 | 50 ft | 8 kts | 131° |
| 2026-04-30 03:25 | 35.52440 | 139.80391 | 53 ft | 12 kts | 47° |
| 2026-04-30 03:25 | 35.52607 | 139.80579 | 52 ft | 67 kts | 43° |
| 2026-04-30 03:26 | 35.53133 | 139.81172 | 49 ft | 134 kts | 43° |
| 2026-04-30 03:26 | 35.53938 | 139.82080 | 251 ft | 169 kts | 43° |
| 2026-04-30 03:26 | 35.54788 | 139.83047 | 1100 ft | 166 kts | 45° |
| 2026-04-30 03:26 | 35.55633 | 139.84011 | 1916 ft | 166 kts | 45° |
| 2026-04-30 03:27 | 35.56483 | 139.84984 | 2718 ft | 168 kts | 45° |
| 2026-04-30 03:27 | 35.57340 | 139.85964 | 3463 ft | 168 kts | 45° |
| 2026-04-30 03:27 | 35.58229 | 139.86980 | 3720 ft | 184 kts | 46° |
| 2026-04-30 03:27 | 35.58965 | 139.88337 | 3877 ft | 202 kts | 73° |
| 2026-04-30 03:28 | 35.59063 | 139.90111 | 4078 ft | 219 kts | 103° |
| 2026-04-30 03:28 | 35.58330 | 139.91827 | 4314 ft | 240 kts | 137° |
| 2026-04-30 03:28 | 35.56846 | 139.92788 | 4889 ft | 248 kts | 172° |
| 2026-04-30 03:28 | 35.55115 | 139.92830 | 5630 ft | 251 kts | 185° |
| 2026-04-30 03:29 | 35.53382 | 139.92542 | 6424 ft | 252 kts | 193° |
| 2026-04-30 03:29 | 35.51693 | 139.91975 | 7172 ft | 253 kts | 200° |
| 2026-04-30 03:29 | 35.50058 | 139.91131 | 7839 ft | 257 kts | 207° |
| 2026-04-30 03:29 | 35.48493 | 139.90027 | 8498 ft | 262 kts | 215° |
| 2026-04-30 03:30 | 35.47042 | 139.88648 | 9170 ft | 266 kts | 223° |
| 2026-04-30 03:30 | 35.45745 | 139.87002 | 9800 ft | 271 kts | 231° |
| 2026-04-30 03:30 | 35.44635 | 139.85109 | 10391 ft | 276 kts | 240° |
| 2026-04-30 03:30 | 35.43729 | 139.82984 | 10757 ft | 291 kts | 248° |
| 2026-04-30 03:31 | 35.43051 | 139.80552 | 10887 ft | 312 kts | 257° |
| 2026-04-30 03:31 | 35.42423 | 139.77918 | 11012 ft | 333 kts | 245° |
| 2026-04-30 03:31 | 35.41062 | 139.75540 | 11149 ft | 352 kts | 223° |
| 2026-04-30 03:31 | 35.38951 | 139.73950 | 11531 ft | 363 kts | 200° |
| 2026-04-30 03:32 | 35.36445 | 139.73492 | 12072 ft | 371 kts | 177° |
| 2026-04-30 03:32 | 35.33932 | 139.74271 | 12640 ft | 377 kts | 160° |
| 2026-04-30 03:32 | 35.31454 | 139.75348 | 13209 ft | 379 kts | 165° |
| 2026-04-30 03:32 | 35.28936 | 139.76352 | 13783 ft | 382 kts | 165° |
| 2026-04-30 03:33 | 35.27262 | 139.77033 | 14124 ft | 385 kts | 165° |
| 2026-04-30 03:33 | 35.24709 | 139.78065 | 14585 ft | 388 kts | 166° |
| 2026-04-30 03:33 | 35.21255 | 139.79432 | 15200 ft | 392 kts | 166° |
| 2026-04-30 03:33 | 35.18647 | 139.80441 | 15658 ft | 394 kts | 167° |
| 2026-04-30 03:34 | 35.16915 | 139.81099 | 15949 ft | 396 kts | 167° |
| 2026-04-30 03:34 | 35.14265 | 139.82100 | 16415 ft | 399 kts | 168° |
| 2026-04-30 03:34 | 35.11606 | 139.83104 | 16869 ft | 402 kts | 168° |
| 2026-04-30 03:34 | 35.08919 | 139.84120 | 17332 ft | 406 kts | 168° |
| 2026-04-30 03:35 | 35.06216 | 139.85145 | 17786 ft | 409 kts | 168° |
| 2026-04-30 03:35 | 35.03491 | 139.86183 | 18254 ft | 412 kts | 168° |
| 2026-04-30 03:35 | 35.00849 | 139.87656 | 18651 ft | 427 kts | 152° |
| 2026-04-30 03:35 | 34.98604 | 139.90098 | 19026 ft | 442 kts | 133° |
| 2026-04-30 03:36 | 34.97057 | 139.93385 | 19398 ft | 455 kts | 112° |
| 2026-04-30 03:36 | 34.96456 | 139.97203 | 19749 ft | 464 kts | 91° |
| 2026-04-30 03:36 | 34.96865 | 140.01110 | 20096 ft | 468 kts | 76° |
| 2026-04-30 03:36 | 34.97612 | 140.04991 | 20459 ft | 472 kts | 76° |
| 2026-04-30 03:37 | 34.98378 | 140.08892 | 20803 ft | 475 kts | 76° |
| 2026-04-30 03:37 | 34.99155 | 140.12825 | 21149 ft | 478 kts | 76° |
| 2026-04-30 03:37 | 34.99936 | 140.16783 | 21482 ft | 482 kts | 76° |
| 2026-04-30 03:37 | 35.00715 | 140.20779 | 21801 ft | 485 kts | 76° |
| 2026-04-30 03:38 | 35.01492 | 140.24794 | 22118 ft | 489 kts | 76° |
| 2026-04-30 03:38 | 35.02271 | 140.28844 | 22421 ft | 492 kts | 76° |
| 2026-04-30 03:38 | 35.03051 | 140.32919 | 22729 ft | 495 kts | 77° |
| 2026-04-30 03:38 | 35.03834 | 140.37027 | 23027 ft | 498 kts | 77° |
| 2026-04-30 03:39 | 35.04619 | 140.41155 | 23338 ft | 501 kts | 77° |
| 2026-04-30 03:39 | 35.05409 | 140.45304 | 23627 ft | 504 kts | 77° |
| 2026-04-30 03:39 | 35.06206 | 140.49491 | 23879 ft | 507 kts | 77° |
| 2026-04-30 03:39 | 35.07005 | 140.53696 | 24120 ft | 510 kts | 77° |
| 2026-04-30 03:40 | 35.07961 | 140.57871 | 24367 ft | 511 kts | 69° |
| 2026-04-30 03:40 | 35.09281 | 140.61903 | 24617 ft | 513 kts | 66° |
| 2026-04-30 03:40 | 35.10641 | 140.65936 | 24867 ft | 515 kts | 66° |
| 2026-04-30 03:40 | 35.12006 | 140.69997 | 25120 ft | 517 kts | 66° |
| 2026-04-30 03:41 | 35.13370 | 140.74069 | 25372 ft | 520 kts | 66° |
| 2026-04-30 03:41 | 35.14734 | 140.78165 | 25632 ft | 522 kts | 66° |
| 2026-04-30 03:41 | 35.16100 | 140.82285 | 25889 ft | 524 kts | 66° |
| 2026-04-30 03:41 | 35.17466 | 140.86410 | 26260 ft | 524 kts | 66° |
| 2026-04-30 03:42 | 35.18815 | 140.90483 | 26628 ft | 523 kts | 66° |
| 2026-04-30 03:42 | 35.20182 | 140.94605 | 26993 ft | 523 kts | 66° |
| 2026-04-30 03:42 | 35.21550 | 140.98729 | 27351 ft | 523 kts | 66° |
| 2026-04-30 03:42 | 35.22916 | 141.02856 | 27718 ft | 524 kts | 66° |
| 2026-04-30 03:43 | 35.24280 | 141.06986 | 28078 ft | 524 kts | 66° |
| 2026-04-30 03:43 | 35.25641 | 141.11119 | 28454 ft | 524 kts | 66° |
| 2026-04-30 03:43 | 35.27002 | 141.15259 | 28827 ft | 524 kts | 66° |
| 2026-04-30 03:43 | 35.28362 | 141.19398 | 29202 ft | 524 kts | 65° |
| 2026-04-30 03:44 | 35.29723 | 141.23537 | 29577 ft | 525 kts | 65° |
| 2026-04-30 03:44 | 35.31084 | 141.27679 | 29956 ft | 525 kts | 65° |
| 2026-04-30 03:44 | 35.32445 | 141.31828 | 30319 ft | 525 kts | 65° |
| 2026-04-30 03:44 | 35.33803 | 141.35979 | 30646 ft | 525 kts | 65° |
| 2026-04-30 03:45 | 35.35159 | 141.40130 | 30970 ft | 525 kts | 65° |
| 2026-04-30 03:45 | 35.36513 | 141.44285 | 31297 ft | 525 kts | 65° |
| 2026-04-30 03:45 | 35.37863 | 141.48438 | 31626 ft | 525 kts | 65° |
| 2026-04-30 03:45 | 35.39212 | 141.52590 | 31953 ft | 525 kts | 65° |
| 2026-04-30 03:46 | 35.40562 | 141.56750 | 32288 ft | 524 kts | 65° |
| 2026-04-30 03:46 | 35.41908 | 141.60895 | 32617 ft | 524 kts | 65° |
| 2026-04-30 03:46 | 35.43254 | 141.65045 | 32953 ft | 524 kts | 65° |
| 2026-04-30 03:46 | 35.44599 | 141.69197 | 33296 ft | 523 kts | 65° |
| 2026-04-30 03:47 | 35.45937 | 141.73343 | 33633 ft | 523 kts | 65° |
| 2026-04-30 03:47 | 35.47275 | 141.77500 | 33964 ft | 523 kts | 65° |
| 2026-04-30 03:47 | 35.48608 | 141.81644 | 34263 ft | 523 kts | 65° |
| 2026-04-30 03:47 | 35.49939 | 141.85788 | 34521 ft | 523 kts | 65° |
| 2026-04-30 03:48 | 35.51274 | 141.89942 | 34749 ft | 523 kts | 65° |
| 2026-04-30 03:48 | 35.52608 | 141.94100 | 34975 ft | 524 kts | 65° |
| 2026-04-30 03:48 | 35.53944 | 141.98267 | 35167 ft | 525 kts | 65° |
| 2026-04-30 03:48 | 35.55265 | 142.02386 | 35232 ft | 528 kts | 65° |
| 2026-04-30 03:49 | 35.58001 | 142.10946 | 35241 ft | 541 kts | 65° |
| 2026-04-30 03:49 | 35.60742 | 142.19551 | 35238 ft | 547 kts | 65° |
| 2026-04-30 03:50 | 35.63521 | 142.28328 | 35236 ft | 548 kts | 65° |
| 2026-04-30 03:50 | 35.66286 | 142.37059 | 35240 ft | 548 kts | 65° |
| 2026-04-30 03:51 | 35.69038 | 142.45754 | 35241 ft | 549 kts | 65° |
| 2026-04-30 03:51 | 35.71791 | 142.54517 | 35248 ft | 549 kts | 65° |
| 2026-04-30 03:52 | 35.74535 | 142.63288 | 35249 ft | 550 kts | 65° |
| 2026-04-30 03:52 | 35.77277 | 142.72075 | 35247 ft | 550 kts | 65° |
| 2026-04-30 03:53 | 35.80022 | 142.80867 | 35247 ft | 550 kts | 65° |
| 2026-04-30 03:53 | 35.82767 | 142.89682 | 35255 ft | 551 kts | 65° |
| 2026-04-30 03:54 | 35.85503 | 142.98506 | 35253 ft | 552 kts | 65° |
| 2026-04-30 03:54 | 35.88231 | 143.07352 | 35257 ft | 552 kts | 65° |
| 2026-04-30 03:55 | 35.90950 | 143.16200 | 35254 ft | 552 kts | 65° |
| 2026-04-30 03:55 | 35.93205 | 143.25275 | 35251 ft | 557 kts | 79° |
| 2026-04-30 03:56 | 35.94217 | 143.34766 | 35252 ft | 558 kts | 82° |
| 2026-04-30 03:56 | 35.95197 | 143.44272 | 35253 ft | 559 kts | 82° |
| 2026-04-30 03:57 | 35.96177 | 143.53792 | 35256 ft | 559 kts | 82° |
| 2026-04-30 03:57 | 35.97147 | 143.63305 | 35257 ft | 559 kts | 82° |
| 2026-04-30 03:58 | 35.98112 | 143.72829 | 35257 ft | 559 kts | 82° |
| 2026-04-30 03:58 | 35.99058 | 143.82357 | 35261 ft | 559 kts | 82° |
| 2026-04-30 03:59 | 35.99999 | 143.91895 | 35261 ft | 559 kts | 82° |
| 2026-04-30 03:59 | 36.00936 | 144.01430 | 35261 ft | 560 kts | 82° |
| 2026-04-30 04:00 | 36.01872 | 144.10974 | 35265 ft | 560 kts | 82° |
| 2026-04-30 04:00 | 36.02793 | 144.20519 | 35315 ft | 559 kts | 82° |
| 2026-04-30 04:01 | 36.03688 | 144.29959 | 35237 ft | 550 kts | 82° |
| 2026-04-30 04:01 | 36.04568 | 144.39291 | 35246 ft | 551 kts | 82° |
| 2026-04-30 04:02 | 36.05464 | 144.48707 | 35252 ft | 551 kts | 82° |
| 2026-04-30 04:02 | 36.06348 | 144.58119 | 35262 ft | 552 kts | 82° |
| 2026-04-30 04:03 | 36.07214 | 144.67547 | 35271 ft | 552 kts | 82° |
| 2026-04-30 04:03 | 36.08077 | 144.76970 | 35274 ft | 552 kts | 83° |
| 2026-04-30 04:04 | 36.08937 | 144.86394 | 35282 ft | 552 kts | 83° |
| 2026-04-30 04:04 | 36.09795 | 144.95817 | 35279 ft | 551 kts | 83° |
| 2026-04-30 04:05 | 36.10638 | 145.05245 | 35278 ft | 551 kts | 83° |
| 2026-04-30 04:05 | 36.11466 | 145.14661 | 35279 ft | 551 kts | 83° |
| 2026-04-30 04:06 | 36.12288 | 145.24083 | 35278 ft | 551 kts | 83° |
| 2026-04-30 04:06 | 36.13110 | 145.33502 | 35276 ft | 551 kts | 83° |
| 2026-04-30 04:07 | 36.13917 | 145.42936 | 35277 ft | 551 kts | 83° |
| 2026-04-30 04:08 | 36.16365 | 145.56761 | 35231 ft | 549 kts | 72° |
| 2026-04-30 04:08 | 36.18286 | 145.65939 | 35224 ft | 553 kts | 72° |
| 2026-04-30 04:09 | 36.20205 | 145.75199 | 35231 ft | 557 kts | 72° |
| 2026-04-30 04:09 | 36.22113 | 145.84444 | 35239 ft | 559 kts | 72° |
| 2026-04-30 04:10 | 36.24041 | 145.93780 | 35246 ft | 560 kts | 72° |
| 2026-04-30 04:10 | 36.25969 | 146.03144 | 35251 ft | 561 kts | 72° |
| 2026-04-30 04:11 | 36.27894 | 146.12519 | 35257 ft | 562 kts | 72° |
| 2026-04-30 04:11 | 36.29801 | 146.21915 | 35260 ft | 562 kts | 72° |
| 2026-04-30 04:12 | 36.31702 | 146.31318 | 35267 ft | 563 kts | 72° |
| 2026-04-30 04:12 | 36.33604 | 146.40741 | 35270 ft | 563 kts | 72° |
| 2026-04-30 04:13 | 36.35501 | 146.50163 | 35269 ft | 563 kts | 72° |
| 2026-04-30 04:13 | 36.37393 | 146.59595 | 35270 ft | 564 kts | 72° |
| 2026-04-30 04:14 | 36.39284 | 146.69036 | 35277 ft | 564 kts | 72° |
| 2026-04-30 04:14 | 36.41156 | 146.78494 | 35275 ft | 564 kts | 73° |
| 2026-04-30 04:15 | 36.43016 | 146.87951 | 35278 ft | 564 kts | 73° |
| 2026-04-30 04:15 | 36.44875 | 146.97409 | 35282 ft | 564 kts | 73° |
| 2026-04-30 04:16 | 36.46716 | 147.06802 | 35281 ft | 563 kts | 73° |
| 2026-04-30 04:16 | 36.48563 | 147.16267 | 35284 ft | 563 kts | 73° |
| 2026-04-30 04:17 | 36.50402 | 147.25727 | 35285 ft | 563 kts | 73° |
| 2026-04-30 04:17 | 36.52232 | 147.35189 | 35276 ft | 563 kts | 73° |
| 2026-04-30 04:18 | 36.54053 | 147.44658 | 35285 ft | 563 kts | 73° |
| 2026-04-30 04:18 | 36.55861 | 147.54133 | 35286 ft | 563 kts | 73° |
| 2026-04-30 04:19 | 36.57666 | 147.63616 | 35282 ft | 563 kts | 73° |
| 2026-04-30 04:19 | 36.59469 | 147.73090 | 35282 ft | 563 kts | 73° |
| 2026-04-30 04:20 | 36.61256 | 147.82576 | 35283 ft | 563 kts | 73° |
| 2026-04-30 04:20 | 36.63041 | 147.92059 | 35280 ft | 563 kts | 73° |
| 2026-04-30 04:21 | 36.64810 | 148.01555 | 35277 ft | 563 kts | 73° |
| 2026-04-30 04:21 | 36.66582 | 148.11058 | 35278 ft | 563 kts | 73° |
| 2026-04-30 04:22 | 36.68043 | 148.18955 | 35279 ft | 563 kts | 73° |
| 2026-04-30 04:22 | 36.69797 | 148.28456 | 35282 ft | 563 kts | 74° |
| 2026-04-30 04:23 | 36.71539 | 148.37967 | 35279 ft | 563 kts | 74° |
| 2026-04-30 04:23 | 36.73275 | 148.47472 | 35279 ft | 563 kts | 74° |
| 2026-04-30 04:24 | 36.75014 | 148.56990 | 35272 ft | 563 kts | 74° |
| 2026-04-30 04:24 | 36.76737 | 148.66506 | 35272 ft | 563 kts | 74° |
| 2026-04-30 04:25 | 36.78448 | 148.76036 | 35280 ft | 563 kts | 74° |
| 2026-04-30 04:25 | 36.80153 | 148.85564 | 35276 ft | 563 kts | 74° |
| 2026-04-30 04:26 | 36.81856 | 148.95106 | 35274 ft | 563 kts | 74° |
| 2026-04-30 04:26 | 36.83548 | 149.04647 | 35295 ft | 564 kts | 73° |
| 2026-04-30 04:27 | 36.85245 | 149.14241 | 35259 ft | 574 kts | 73° |
| 2026-04-30 04:27 | 36.86959 | 149.23996 | 35260 ft | 576 kts | 73° |
| 2026-04-30 04:28 | 36.88667 | 149.33772 | 35251 ft | 576 kts | 73° |
| 2026-04-30 04:28 | 36.90364 | 149.43551 | 35252 ft | 577 kts | 73° |
| 2026-04-30 04:29 | 36.92055 | 149.53361 | 35267 ft | 577 kts | 73° |
| 2026-04-30 04:29 | 36.93744 | 149.63170 | 35267 ft | 578 kts | 73° |
| 2026-04-30 04:30 | 36.95427 | 149.72988 | 35273 ft | 578 kts | 73° |
| 2026-04-30 04:30 | 36.97099 | 149.82827 | 35265 ft | 578 kts | 73° |
| 2026-04-30 04:31 | 36.98766 | 149.92671 | 35261 ft | 579 kts | 73° |
| 2026-04-30 04:31 | 37.00110 | 150.02611 | 35253 ft | 584 kts | 84° |
| 2026-04-30 04:32 | 37.00525 | 150.12766 | 35250 ft | 584 kts | 85° |
| 2026-04-30 04:32 | 37.00947 | 150.22914 | 35250 ft | 585 kts | 84° |
| 2026-04-30 04:33 | 37.01357 | 150.33085 | 35254 ft | 585 kts | 85° |
| 2026-04-30 04:33 | 37.01745 | 150.43250 | 35259 ft | 586 kts | 85° |
| 2026-04-30 04:34 | 37.02124 | 150.53431 | 35262 ft | 586 kts | 85° |
| 2026-04-30 04:34 | 37.02508 | 150.63626 | 35266 ft | 586 kts | 85° |
| 2026-04-30 04:35 | 37.02893 | 150.73816 | 35260 ft | 587 kts | 85° |
| 2026-04-30 04:35 | 37.03256 | 150.84028 | 35265 ft | 587 kts | 85° |
| 2026-04-30 04:36 | 37.03594 | 150.94240 | 35269 ft | 587 kts | 85° |
| 2026-04-30 04:36 | 37.03931 | 151.04450 | 35272 ft | 587 kts | 85° |
| 2026-04-30 04:37 | 37.04266 | 151.14590 | 35269 ft | 587 kts | 85° |
| 2026-04-30 04:37 | 37.04598 | 151.24866 | 35271 ft | 587 kts | 85° |
| 2026-04-30 04:38 | 37.04918 | 151.35011 | 35273 ft | 587 kts | 85° |
| 2026-04-30 04:38 | 37.05228 | 151.45238 | 35272 ft | 587 kts | 85° |
| 2026-04-30 04:39 | 37.05519 | 151.55457 | 35267 ft | 587 kts | 85° |
| 2026-04-30 04:39 | 37.05810 | 151.65670 | 35268 ft | 587 kts | 85° |
| 2026-04-30 04:40 | 37.06097 | 151.75892 | 35274 ft | 587 kts | 85° |
| 2026-04-30 04:40 | 37.06375 | 151.86110 | 35272 ft | 588 kts | 86° |
| 2026-04-30 04:41 | 37.06641 | 151.96337 | 35266 ft | 588 kts | 86° |
| 2026-04-30 04:41 | 37.06896 | 152.06569 | 35267 ft | 588 kts | 86° |
| 2026-04-30 04:42 | 37.07145 | 152.16789 | 35271 ft | 588 kts | 86° |
| 2026-04-30 04:42 | 37.07390 | 152.27021 | 35269 ft | 588 kts | 86° |
| 2026-04-30 04:43 | 37.07620 | 152.37255 | 35271 ft | 588 kts | 86° |
| 2026-04-30 04:43 | 37.07839 | 152.47484 | 35272 ft | 588 kts | 86° |
| 2026-04-30 04:44 | 37.08053 | 152.57717 | 35267 ft | 588 kts | 86° |
| 2026-04-30 04:44 | 37.08254 | 152.67963 | 35265 ft | 588 kts | 86° |
| 2026-04-30 04:45 | 37.08449 | 152.78194 | 35264 ft | 588 kts | 86° |
| 2026-04-30 04:45 | 37.08633 | 152.88441 | 35257 ft | 588 kts | 86° |
| 2026-04-30 04:46 | 37.08803 | 152.98676 | 35261 ft | 588 kts | 86° |
| 2026-04-30 04:46 | 37.08973 | 153.08914 | 35262 ft | 588 kts | 86° |
| 2026-04-30 04:47 | 37.09136 | 153.19090 | 35260 ft | 588 kts | 86° |
| 2026-04-30 04:47 | 37.09289 | 153.29317 | 35255 ft | 588 kts | 87° |
| 2026-04-30 04:48 | 37.09430 | 153.39557 | 35252 ft | 588 kts | 87° |
| 2026-04-30 04:48 | 37.09565 | 153.49784 | 35250 ft | 587 kts | 87° |
| 2026-04-30 04:49 | 37.09690 | 153.60016 | 35250 ft | 588 kts | 87° |
| 2026-04-30 04:49 | 37.09805 | 153.70315 | 35244 ft | 588 kts | 87° |
| 2026-04-30 04:50 | 37.09912 | 153.80484 | 35246 ft | 587 kts | 87° |
| 2026-04-30 04:50 | 37.10008 | 153.90717 | 35245 ft | 588 kts | 87° |
| 2026-04-30 04:51 | 37.10094 | 154.00941 | 35246 ft | 587 kts | 87° |
| 2026-04-30 04:51 | 37.10177 | 154.11175 | 35241 ft | 587 kts | 87° |
| 2026-04-30 04:52 | 37.10250 | 154.21407 | 35237 ft | 587 kts | 88° |
| 2026-04-30 04:52 | 37.10314 | 154.31635 | 35231 ft | 587 kts | 88° |
| 2026-04-30 04:53 | 37.10368 | 154.41854 | 35230 ft | 587 kts | 88° |
| 2026-04-30 04:53 | 37.10408 | 154.52078 | 35230 ft | 587 kts | 88° |
| 2026-04-30 04:54 | 37.10442 | 154.62304 | 35228 ft | 587 kts | 88° |
| 2026-04-30 04:54 | 37.10480 | 154.72536 | 35224 ft | 587 kts | 88° |
| 2026-04-30 04:55 | 37.10511 | 154.82766 | 35225 ft | 588 kts | 88° |
| 2026-04-30 04:55 | 37.10519 | 154.93014 | 35226 ft | 588 kts | 88° |
| 2026-04-30 04:56 | 37.10509 | 155.03252 | 35231 ft | 588 kts | 89° |
| 2026-04-30 04:56 | 37.10494 | 155.13488 | 35230 ft | 587 kts | 89° |
| 2026-04-30 04:57 | 37.10482 | 155.23707 | 35232 ft | 587 kts | 89° |
| 2026-04-30 04:57 | 37.10464 | 155.33937 | 35230 ft | 587 kts | 89° |
| 2026-04-30 04:58 | 37.10429 | 155.44162 | 35226 ft | 587 kts | 89° |
| 2026-04-30 04:58 | 37.10386 | 155.54312 | 35224 ft | 587 kts | 89° |
| 2026-04-30 04:59 | 37.10333 | 155.64543 | 35221 ft | 587 kts | 89° |
| 2026-04-30 04:59 | 37.10273 | 155.74756 | 35220 ft | 587 kts | 89° |
| 2026-04-30 05:00 | 37.10203 | 155.84968 | 35221 ft | 587 kts | 89° |
| 2026-04-30 05:00 | 37.10131 | 155.95197 | 35222 ft | 587 kts | 89° |
| 2026-04-30 05:01 | 37.10049 | 156.05420 | 35217 ft | 587 kts | 90° |
| 2026-04-30 05:01 | 37.09947 | 156.15641 | 35217 ft | 587 kts | 90° |
| 2026-04-30 05:02 | 37.09839 | 156.25853 | 35219 ft | 586 kts | 90° |
| 2026-04-30 05:02 | 37.09726 | 156.36066 | 35213 ft | 586 kts | 90° |
| 2026-04-30 05:03 | 37.09609 | 156.46268 | 35208 ft | 586 kts | 90° |
| 2026-04-30 05:03 | 37.09481 | 156.56465 | 35204 ft | 586 kts | 90° |
| 2026-04-30 05:04 | 37.09340 | 156.66596 | 35201 ft | 586 kts | 90° |
| 2026-04-30 05:04 | 37.09195 | 156.76802 | 35199 ft | 585 kts | 90° |
| 2026-04-30 05:05 | 37.09043 | 156.86989 | 35197 ft | 585 kts | 90° |
| 2026-04-30 05:05 | 37.08884 | 156.97182 | 35199 ft | 585 kts | 91° |
| 2026-04-30 05:06 | 37.08625 | 157.12458 | 35189 ft | 585 kts | 91° |
| 2026-04-30 05:06 | 37.08438 | 157.22640 | 35183 ft | 585 kts | 91° |
| 2026-04-30 05:07 | 37.08240 | 157.32825 | 35181 ft | 585 kts | 91° |
| 2026-04-30 05:07 | 37.08025 | 157.43018 | 35177 ft | 585 kts | 91° |
| 2026-04-30 05:08 | 37.07807 | 157.53209 | 35175 ft | 585 kts | 91° |
| 2026-04-30 05:08 | 37.07595 | 157.63402 | 35175 ft | 586 kts | 91° |
| 2026-04-30 05:09 | 37.07373 | 157.73595 | 35175 ft | 586 kts | 91° |
| 2026-04-30 05:09 | 37.07137 | 157.83789 | 35178 ft | 586 kts | 92° |
| 2026-04-30 05:10 | 37.06927 | 157.92266 | 35177 ft | 586 kts | 92° |
| 2026-04-30 05:10 | 37.06674 | 158.02452 | 35176 ft | 585 kts | 92° |
| 2026-04-30 05:11 | 37.06365 | 158.14296 | 35172 ft | 585 kts | 92° |
| 2026-04-30 05:11 | 37.06134 | 158.22819 | 35172 ft | 585 kts | 92° |
| 2026-04-30 05:12 | 37.05848 | 158.33002 | 35171 ft | 585 kts | 92° |
| 2026-04-30 05:12 | 37.05563 | 158.43191 | 35165 ft | 585 kts | 92° |
| 2026-04-30 05:13 | 37.05273 | 158.53371 | 35162 ft | 585 kts | 92° |
| 2026-04-30 05:13 | 37.04958 | 158.63549 | 35163 ft | 585 kts | 92° |
| 2026-04-30 05:14 | 37.04645 | 158.73668 | 35162 ft | 586 kts | 92° |
| 2026-04-30 05:14 | 37.04318 | 158.83916 | 35162 ft | 586 kts | 93° |
| 2026-04-30 05:15 | 37.03980 | 158.94041 | 35160 ft | 586 kts | 93° |
| 2026-04-30 05:15 | 37.03634 | 159.04224 | 35160 ft | 586 kts | 93° |
| 2026-04-30 05:16 | 37.03291 | 159.14409 | 35156 ft | 586 kts | 93° |
| 2026-04-30 05:16 | 37.02946 | 159.24600 | 35151 ft | 586 kts | 93° |
| 2026-04-30 05:17 | 37.02585 | 159.34783 | 35151 ft | 586 kts | 94° |
| 2026-04-30 05:17 | 37.02201 | 159.44972 | 35145 ft | 586 kts | 94° |
| 2026-04-30 05:18 | 37.01809 | 159.55155 | 35140 ft | 586 kts | 94° |
| 2026-04-30 05:18 | 37.01416 | 159.65342 | 35135 ft | 586 kts | 94° |
| 2026-04-30 05:19 | 37.01013 | 159.75530 | 35133 ft | 586 kts | 94° |
| 2026-04-30 05:19 | 37.00598 | 159.85719 | 35133 ft | 586 kts | 94° |
| 2026-04-30 05:20 | 37.00174 | 159.95905 | 35125 ft | 586 kts | 94° |
| 2026-04-30 05:20 | 36.99708 | 160.06080 | 35128 ft | 586 kts | 95° |
| 2026-04-30 05:21 | 36.99121 | 160.16183 | 35124 ft | 586 kts | 96° |
| 2026-04-30 05:21 | 36.98469 | 160.26341 | 35121 ft | 586 kts | 96° |
| 2026-04-30 05:22 | 36.97834 | 160.36497 | 35117 ft | 586 kts | 96° |
| 2026-04-30 05:22 | 36.97233 | 160.46661 | 35115 ft | 586 kts | 96° |
| 2026-04-30 05:23 | 36.96623 | 160.56819 | 35109 ft | 586 kts | 96° |
| 2026-04-30 05:23 | 36.95987 | 160.66969 | 35108 ft | 585 kts | 96° |
| 2026-04-30 05:24 | 36.95341 | 160.77117 | 35102 ft | 585 kts | 96° |
| 2026-04-30 05:24 | 36.94697 | 160.87247 | 35100 ft | 585 kts | 96° |
| 2026-04-30 05:25 | 36.94041 | 160.97386 | 35101 ft | 585 kts | 97° |
| 2026-04-30 05:25 | 36.93374 | 161.07514 | 35099 ft | 585 kts | 97° |
| 2026-04-30 05:26 | 36.92695 | 161.17636 | 35095 ft | 584 kts | 97° |
| 2026-04-30 05:26 | 36.92010 | 161.27755 | 35092 ft | 584 kts | 97° |
| 2026-04-30 05:27 | 36.91320 | 161.37867 | 35088 ft | 584 kts | 97° |
| 2026-04-30 05:27 | 36.90616 | 161.47981 | 35088 ft | 584 kts | 97° |
| 2026-04-30 05:28 | 36.89907 | 161.58084 | 35085 ft | 584 kts | 97° |
| 2026-04-30 05:28 | 36.89193 | 161.68181 | 35079 ft | 583 kts | 97° |
| 2026-04-30 05:29 | 36.88465 | 161.78271 | 35085 ft | 583 kts | 97° |
| 2026-04-30 05:29 | 36.87730 | 161.88350 | 35078 ft | 583 kts | 98° |
| 2026-04-30 05:30 | 36.86993 | 161.98420 | 35077 ft | 582 kts | 98° |
| 2026-04-30 05:30 | 36.86246 | 162.08491 | 35070 ft | 582 kts | 98° |
| 2026-04-30 05:31 | 36.85487 | 162.18534 | 35070 ft | 581 kts | 98° |
| 2026-04-30 05:31 | 36.84721 | 162.28574 | 35074 ft | 580 kts | 98° |
| 2026-04-30 05:32 | 36.83952 | 162.38600 | 35063 ft | 580 kts | 98° |
| 2026-04-30 05:32 | 36.83171 | 162.48608 | 35069 ft | 579 kts | 98° |
| 2026-04-30 05:33 | 36.82377 | 162.58608 | 35065 ft | 579 kts | 98° |
| 2026-04-30 05:33 | 36.81591 | 162.68610 | 35060 ft | 578 kts | 98° |
| 2026-04-30 05:34 | 36.80791 | 162.78589 | 35052 ft | 578 kts | 98° |
| 2026-04-30 05:34 | 36.79977 | 162.88561 | 35058 ft | 577 kts | 98° |
| 2026-04-30 05:35 | 36.79164 | 162.98453 | 35047 ft | 577 kts | 98° |
| 2026-04-30 05:35 | 36.78331 | 163.08476 | 35049 ft | 577 kts | 99° |
| 2026-04-30 05:36 | 36.77496 | 163.18353 | 35046 ft | 576 kts | 99° |
| 2026-04-30 05:36 | 36.76660 | 163.28292 | 35053 ft | 576 kts | 99° |
| 2026-04-30 05:37 | 36.75815 | 163.38225 | 35044 ft | 576 kts | 99° |
| 2026-04-30 05:37 | 36.74951 | 163.48138 | 35044 ft | 575 kts | 99° |
| 2026-04-30 05:38 | 36.74084 | 163.58054 | 35041 ft | 575 kts | 99° |
| 2026-04-30 05:38 | 36.73213 | 163.67951 | 35038 ft | 574 kts | 99° |
| 2026-04-30 05:39 | 36.72330 | 163.77836 | 35039 ft | 574 kts | 99° |
| 2026-04-30 05:39 | 36.71443 | 163.87717 | 35033 ft | 573 kts | 99° |
| 2026-04-30 05:40 | 36.70549 | 163.97576 | 35033 ft | 573 kts | 99° |
| 2026-04-30 05:40 | 36.69651 | 164.07434 | 35032 ft | 572 kts | 99° |
| 2026-04-30 05:41 | 36.68743 | 164.17290 | 35027 ft | 572 kts | 99° |
| 2026-04-30 05:41 | 36.67831 | 164.27129 | 35028 ft | 572 kts | 99° |
| 2026-04-30 05:42 | 36.66904 | 164.36956 | 35025 ft | 571 kts | 99° |
| 2026-04-30 05:42 | 36.65975 | 164.46779 | 35024 ft | 571 kts | 99° |
| 2026-04-30 05:43 | 36.65037 | 164.56602 | 35024 ft | 571 kts | 100° |
| 2026-04-30 05:43 | 36.64090 | 164.66408 | 35023 ft | 570 kts | 100° |
| 2026-04-30 05:44 | 36.63136 | 164.76211 | 35022 ft | 570 kts | 100° |
| 2026-04-30 05:44 | 36.62186 | 164.85942 | 35023 ft | 570 kts | 100° |
| 2026-04-30 05:45 | 36.61216 | 164.95725 | 35023 ft | 570 kts | 100° |
| 2026-04-30 05:45 | 36.60224 | 165.05511 | 35017 ft | 569 kts | 100° |
| 2026-04-30 05:46 | 36.59240 | 165.15281 | 35024 ft | 569 kts | 100° |
| 2026-04-30 05:46 | 36.58259 | 165.25044 | 35015 ft | 569 kts | 100° |
| 2026-04-30 05:47 | 36.57255 | 165.34805 | 35018 ft | 569 kts | 100° |
| 2026-04-30 05:47 | 36.56244 | 165.44557 | 35015 ft | 568 kts | 100° |
| 2026-04-30 05:48 | 36.55229 | 165.54312 | 35012 ft | 568 kts | 101° |
| 2026-04-30 05:48 | 36.54211 | 165.64044 | 35015 ft | 567 kts | 101° |
| 2026-04-30 05:49 | 36.53179 | 165.73767 | 35012 ft | 567 kts | 101° |
| 2026-04-30 05:49 | 36.52142 | 165.83483 | 35012 ft | 567 kts | 101° |
| 2026-04-30 05:50 | 36.51107 | 165.93128 | 35011 ft | 566 kts | 101° |
| 2026-04-30 05:50 | 36.50061 | 166.02818 | 35011 ft | 566 kts | 101° |
| 2026-04-30 05:51 | 36.49004 | 166.12511 | 35010 ft | 565 kts | 101° |
| 2026-04-30 05:51 | 36.47933 | 166.22181 | 35010 ft | 565 kts | 101° |
| 2026-04-30 05:52 | 36.46861 | 166.31852 | 35012 ft | 565 kts | 101° |
| 2026-04-30 05:52 | 36.45790 | 166.41501 | 35012 ft | 564 kts | 101° |
| 2026-04-30 05:53 | 36.44700 | 166.51146 | 35006 ft | 564 kts | 101° |
| 2026-04-30 05:53 | 36.43609 | 166.60790 | 35009 ft | 563 kts | 101° |
| 2026-04-30 05:54 | 36.42509 | 166.70412 | 35005 ft | 563 kts | 101° |
| 2026-04-30 05:54 | 36.41403 | 166.80038 | 35005 ft | 563 kts | 101° |
| 2026-04-30 05:55 | 36.40292 | 166.89644 | 35004 ft | 562 kts | 101° |
| 2026-04-30 05:55 | 36.39168 | 166.99253 | 34997 ft | 562 kts | 102° |
| 2026-04-30 05:56 | 36.38069 | 167.08619 | 34996 ft | 562 kts | 102° |
| 2026-04-30 05:56 | 36.36936 | 167.18205 | 34999 ft | 561 kts | 102° |
| 2026-04-30 05:57 | 36.35793 | 167.27780 | 34998 ft | 561 kts | 102° |
| 2026-04-30 05:57 | 36.34643 | 167.37352 | 34999 ft | 561 kts | 102° |
| 2026-04-30 05:58 | 36.33489 | 167.46922 | 35000 ft | 561 kts | 102° |
| 2026-04-30 05:58 | 36.32529 | 167.54862 | 34998 ft | 560 kts | 102° |
| 2026-04-30 05:59 | 36.31352 | 167.64415 | 34996 ft | 560 kts | 102° |
| 2026-04-30 05:59 | 36.30171 | 167.73951 | 34995 ft | 560 kts | 102° |
| 2026-04-30 06:00 | 36.28996 | 167.83479 | 34997 ft | 559 kts | 102° |
| 2026-04-30 06:00 | 36.27812 | 167.92999 | 34990 ft | 559 kts | 102° |
| 2026-04-30 06:01 | 36.26615 | 168.02508 | 34991 ft | 558 kts | 102° |
| 2026-04-30 06:01 | 36.25416 | 168.12013 | 35001 ft | 558 kts | 102° |
| 2026-04-30 06:02 | 36.24218 | 168.21436 | 34995 ft | 557 kts | 102° |
| 2026-04-30 06:02 | 36.23002 | 168.30909 | 34986 ft | 557 kts | 102° |
| 2026-04-30 06:03 | 36.21783 | 168.40372 | 34989 ft | 556 kts | 102° |
| 2026-04-30 06:03 | 36.20552 | 168.49824 | 34990 ft | 555 kts | 102° |
| 2026-04-30 06:04 | 36.19318 | 168.59260 | 34987 ft | 555 kts | 102° |
| 2026-04-30 06:05 | 36.17462 | 168.73385 | 34994 ft | 554 kts | 102° |
| 2026-04-30 06:05 | 36.16218 | 168.82787 | 34993 ft | 553 kts | 102° |
| 2026-04-30 06:06 | 36.14966 | 168.92178 | 34989 ft | 553 kts | 103° |
| 2026-04-30 06:06 | 36.13697 | 169.01549 | 34985 ft | 552 kts | 103° |
| 2026-04-30 06:07 | 36.12423 | 169.10917 | 34992 ft | 552 kts | 103° |
| 2026-04-30 06:07 | 36.11156 | 169.20275 | 34987 ft | 551 kts | 103° |
| 2026-04-30 06:08 | 36.09886 | 169.29614 | 34992 ft | 551 kts | 103° |
| 2026-04-30 06:08 | 36.08612 | 169.38876 | 34992 ft | 550 kts | 103° |
| 2026-04-30 06:09 | 36.07317 | 169.48190 | 34994 ft | 549 kts | 103° |
| 2026-04-30 06:09 | 36.06019 | 169.57487 | 34993 ft | 549 kts | 103° |
| 2026-04-30 06:10 | 36.04725 | 169.66778 | 34995 ft | 548 kts | 103° |
| 2026-04-30 06:10 | 36.03426 | 169.76047 | 34997 ft | 547 kts | 103° |
| 2026-04-30 06:11 | 36.02109 | 169.85304 | 34996 ft | 546 kts | 103° |
| 2026-04-30 06:11 | 36.00788 | 169.94536 | 34999 ft | 546 kts | 103° |
| 2026-04-30 06:12 | 35.99106 | 170.03629 | 34996 ft | 540 kts | 111° |
| 2026-04-30 06:12 | 35.96929 | 170.12324 | 34996 ft | 540 kts | 111° |
| 2026-04-30 06:13 | 35.94705 | 170.21167 | 34997 ft | 539 kts | 111° |
| 2026-04-30 06:13 | 35.92478 | 170.30004 | 35001 ft | 539 kts | 111° |
| 2026-04-30 06:14 | 35.90251 | 170.38828 | 35001 ft | 538 kts | 111° |
| 2026-04-30 06:14 | 35.88024 | 170.47629 | 34999 ft | 538 kts | 111° |
| 2026-04-30 06:15 | 35.85795 | 170.56421 | 35003 ft | 537 kts | 111° |
| 2026-04-30 06:15 | 35.83558 | 170.65205 | 35004 ft | 537 kts | 111° |
| 2026-04-30 06:16 | 35.81311 | 170.73962 | 35003 ft | 536 kts | 111° |
| 2026-04-30 06:16 | 35.79059 | 170.82711 | 35012 ft | 535 kts | 111° |
| 2026-04-30 06:17 | 35.76813 | 170.91449 | 35008 ft | 535 kts | 111° |
| 2026-04-30 06:17 | 35.74562 | 171.00173 | 35009 ft | 534 kts | 111° |
| 2026-04-30 06:18 | 35.72296 | 171.08875 | 35003 ft | 534 kts | 112° |
| 2026-04-30 06:18 | 35.70028 | 171.17562 | 35008 ft | 533 kts | 111° |
| 2026-04-30 06:19 | 35.67763 | 171.26239 | 35009 ft | 533 kts | 111° |
| 2026-04-30 06:19 | 35.65513 | 171.34850 | 35014 ft | 532 kts | 111° |
| 2026-04-30 06:20 | 35.63240 | 171.43499 | 35013 ft | 531 kts | 112° |
| 2026-04-30 06:20 | 35.60957 | 171.52132 | 35014 ft | 531 kts | 111° |
| 2026-04-30 06:21 | 35.58673 | 171.60749 | 35024 ft | 530 kts | 111° |
| 2026-04-30 06:21 | 35.56390 | 171.69356 | 35024 ft | 529 kts | 111° |
| 2026-04-30 06:22 | 35.54105 | 171.77946 | 35027 ft | 529 kts | 111° |
| 2026-04-30 06:22 | 35.51818 | 171.86520 | 35025 ft | 528 kts | 111° |
| 2026-04-30 06:23 | 35.49520 | 171.95072 | 35026 ft | 528 kts | 111° |
| 2026-04-30 06:23 | 35.47217 | 172.03620 | 35030 ft | 527 kts | 111° |
| 2026-04-30 06:24 | 35.44922 | 172.12153 | 35029 ft | 527 kts | 111° |
| 2026-04-30 06:24 | 35.42621 | 172.20669 | 35030 ft | 526 kts | 112° |
| 2026-04-30 06:25 | 35.40302 | 172.29169 | 35033 ft | 525 kts | 111° |
| 2026-04-30 06:25 | 35.37991 | 172.37661 | 35037 ft | 525 kts | 111° |
| 2026-04-30 06:26 | 35.35689 | 172.46088 | 35037 ft | 524 kts | 112° |
| 2026-04-30 06:26 | 35.33364 | 172.54545 | 35040 ft | 524 kts | 112° |
| 2026-04-30 06:27 | 35.31035 | 172.62999 | 35042 ft | 523 kts | 111° |
| 2026-04-30 06:27 | 35.28708 | 172.71436 | 35046 ft | 523 kts | 111° |
| 2026-04-30 06:28 | 35.26387 | 172.79856 | 35045 ft | 522 kts | 111° |
| 2026-04-30 06:28 | 35.24054 | 172.88270 | 35049 ft | 522 kts | 112° |
| 2026-04-30 06:29 | 35.21712 | 172.96663 | 35052 ft | 521 kts | 112° |
| 2026-04-30 06:29 | 35.19377 | 173.05039 | 35050 ft | 521 kts | 112° |
| 2026-04-30 06:30 | 35.17037 | 173.13409 | 35055 ft | 520 kts | 112° |
| 2026-04-30 06:30 | 35.14690 | 173.21773 | 35055 ft | 520 kts | 112° |
| 2026-04-30 06:31 | 35.12336 | 173.30109 | 35052 ft | 519 kts | 112° |
| 2026-04-30 06:31 | 35.09978 | 173.38446 | 35060 ft | 519 kts | 112° |
| 2026-04-30 06:32 | 35.07625 | 173.46770 | 35065 ft | 518 kts | 112° |
| 2026-04-30 06:32 | 35.05263 | 173.55077 | 35065 ft | 518 kts | 112° |
| 2026-04-30 06:33 | 35.02887 | 173.63362 | 35068 ft | 517 kts | 112° |
| 2026-04-30 06:33 | 35.00520 | 173.71642 | 35066 ft | 517 kts | 112° |
| 2026-04-30 06:34 | 34.98152 | 173.79914 | 35074 ft | 516 kts | 112° |
| 2026-04-30 06:34 | 34.95780 | 173.88171 | 35071 ft | 516 kts | 112° |
| 2026-04-30 06:35 | 34.93399 | 173.96415 | 35077 ft | 515 kts | 112° |
| 2026-04-30 06:35 | 34.91016 | 174.04642 | 35075 ft | 515 kts | 112° |
| 2026-04-30 06:36 | 34.88630 | 174.12869 | 35079 ft | 514 kts | 112° |
| 2026-04-30 06:36 | 34.86242 | 174.21075 | 35082 ft | 514 kts | 112° |
| 2026-04-30 06:37 | 34.83843 | 174.29272 | 35088 ft | 514 kts | 112° |
| 2026-04-30 06:37 | 34.81444 | 174.37461 | 35095 ft | 513 kts | 112° |
| 2026-04-30 06:38 | 34.79062 | 174.45579 | 35092 ft | 513 kts | 112° |
| 2026-04-30 06:38 | 34.76640 | 174.53800 | 35092 ft | 512 kts | 112° |
| 2026-04-30 06:39 | 34.74241 | 174.61956 | 35095 ft | 512 kts | 112° |
| 2026-04-30 06:39 | 34.71854 | 174.70048 | 35094 ft | 512 kts | 112° |
| 2026-04-30 06:40 | 34.69437 | 174.78176 | 35096 ft | 511 kts | 112° |
| 2026-04-30 06:40 | 34.67012 | 174.86293 | 35096 ft | 511 kts | 112° |
| 2026-04-30 06:41 | 34.64588 | 174.94399 | 35102 ft | 511 kts | 112° |
| 2026-04-30 06:41 | 34.62165 | 175.02505 | 35095 ft | 511 kts | 112° |
| 2026-04-30 06:42 | 34.59735 | 175.10598 | 35103 ft | 510 kts | 112° |
| 2026-04-30 06:42 | 34.57294 | 175.18687 | 35101 ft | 510 kts | 112° |
| 2026-04-30 06:43 | 34.54850 | 175.26766 | 35102 ft | 510 kts | 112° |
| 2026-04-30 06:43 | 34.52416 | 175.34829 | 35108 ft | 509 kts | 112° |
| 2026-04-30 06:44 | 34.49974 | 175.42892 | 35106 ft | 509 kts | 112° |
| 2026-04-30 06:44 | 34.47519 | 175.50940 | 35110 ft | 509 kts | 112° |
| 2026-04-30 06:45 | 34.45060 | 175.58986 | 35114 ft | 509 kts | 112° |
| 2026-04-30 06:45 | 34.42600 | 175.67022 | 35114 ft | 509 kts | 112° |
| 2026-04-30 06:46 | 34.40137 | 175.75059 | 35117 ft | 509 kts | 112° |
| 2026-04-30 06:46 | 34.37665 | 175.83084 | 35116 ft | 508 kts | 112° |
| 2026-04-30 06:47 | 34.35196 | 175.91095 | 35116 ft | 508 kts | 112° |
| 2026-04-30 06:47 | 34.33136 | 175.97751 | 35119 ft | 508 kts | 112° |
| 2026-04-30 06:48 | 34.30651 | 176.05749 | 35122 ft | 508 kts | 112° |
| 2026-04-30 06:48 | 34.28159 | 176.13749 | 35128 ft | 508 kts | 113° |
| 2026-04-30 06:49 | 34.25666 | 176.21740 | 35129 ft | 508 kts | 112° |
| 2026-04-30 06:49 | 34.23173 | 176.29728 | 35129 ft | 508 kts | 113° |
| 2026-04-30 06:50 | 34.20675 | 176.37705 | 35130 ft | 508 kts | 113° |
| 2026-04-30 06:50 | 34.18163 | 176.45677 | 35136 ft | 508 kts | 113° |
| 2026-04-30 06:51 | 34.15648 | 176.53644 | 35140 ft | 507 kts | 113° |
| 2026-04-30 06:51 | 34.13158 | 176.61550 | 35140 ft | 507 kts | 113° |
| 2026-04-30 06:52 | 34.10627 | 176.69553 | 35139 ft | 507 kts | 113° |
| 2026-04-30 06:52 | 34.08099 | 176.77487 | 35146 ft | 507 kts | 113° |
| 2026-04-30 06:53 | 34.05575 | 176.85419 | 35152 ft | 507 kts | 113° |
| 2026-04-30 06:53 | 34.03040 | 176.93348 | 35157 ft | 507 kts | 113° |
| 2026-04-30 06:54 | 34.00503 | 177.01267 | 35153 ft | 506 kts | 113° |
| 2026-04-30 06:54 | 33.97982 | 177.09128 | 35151 ft | 506 kts | 113° |
| 2026-04-30 06:55 | 33.95436 | 177.17032 | 35156 ft | 506 kts | 113° |
| 2026-04-30 06:55 | 33.92887 | 177.24932 | 35152 ft | 506 kts | 113° |
| 2026-04-30 06:56 | 33.90344 | 177.32822 | 35162 ft | 505 kts | 113° |
| 2026-04-30 06:56 | 33.87784 | 177.40703 | 35157 ft | 505 kts | 113° |
| 2026-04-30 06:57 | 33.85218 | 177.48574 | 35169 ft | 506 kts | 113° |
| 2026-04-30 06:57 | 33.82660 | 177.56453 | 35164 ft | 505 kts | 113° |
| 2026-04-30 06:58 | 33.80092 | 177.64326 | 35176 ft | 505 kts | 113° |
| 2026-04-30 06:58 | 33.77510 | 177.72184 | 35179 ft | 505 kts | 113° |
| 2026-04-30 06:59 | 33.74926 | 177.80034 | 35180 ft | 505 kts | 113° |
| 2026-04-30 06:59 | 33.72348 | 177.87889 | 35177 ft | 505 kts | 113° |
| 2026-04-30 07:00 | 33.69761 | 177.95724 | 35183 ft | 505 kts | 113° |
| 2026-04-30 07:00 | 33.67165 | 178.03558 | 35183 ft | 505 kts | 113° |
| 2026-04-30 07:01 | 33.64566 | 178.11384 | 35188 ft | 505 kts | 113° |
| 2026-04-30 07:01 | 33.61963 | 178.19207 | 35189 ft | 504 kts | 113° |
| 2026-04-30 07:02 | 33.59360 | 178.27015 | 35196 ft | 504 kts | 113° |
| 2026-04-30 07:02 | 33.56753 | 178.34813 | 35198 ft | 504 kts | 113° |
| 2026-04-30 07:03 | 33.54143 | 178.42601 | 35204 ft | 503 kts | 113° |
| 2026-04-30 07:03 | 33.51548 | 178.50336 | 35206 ft | 503 kts | 113° |
| 2026-04-30 07:04 | 33.48927 | 178.58110 | 35208 ft | 503 kts | 114° |
| 2026-04-30 07:04 | 33.46279 | 178.65928 | 35208 ft | 503 kts | 114° |
| 2026-04-30 07:05 | 33.42358 | 178.77517 | 35213 ft | 503 kts | 113° |
| 2026-04-30 07:05 | 33.39733 | 178.85265 | 35214 ft | 502 kts | 113° |
| 2026-04-30 07:06 | 33.37096 | 178.93003 | 35215 ft | 502 kts | 113° |
| 2026-04-30 07:06 | 33.34460 | 179.00724 | 35218 ft | 501 kts | 113° |
| 2026-04-30 07:07 | 33.31819 | 179.08434 | 35223 ft | 501 kts | 113° |
| 2026-04-30 07:07 | 33.29184 | 179.16144 | 35224 ft | 501 kts | 113° |
| 2026-04-30 07:08 | 33.26540 | 179.23848 | 35233 ft | 501 kts | 113° |
| 2026-04-30 07:08 | 33.23888 | 179.31532 | 35230 ft | 500 kts | 113° |
| 2026-04-30 07:09 | 33.21228 | 179.39201 | 35232 ft | 499 kts | 113° |
| 2026-04-30 07:09 | 33.18573 | 179.46857 | 35237 ft | 499 kts | 113° |
| 2026-04-30 07:10 | 33.15924 | 179.54514 | 35238 ft | 499 kts | 113° |
| 2026-04-30 07:10 | 33.13269 | 179.62153 | 35242 ft | 498 kts | 113° |
| 2026-04-30 07:11 | 33.10605 | 179.69786 | 35244 ft | 498 kts | 113° |
| 2026-04-30 07:11 | 33.07939 | 179.77403 | 35246 ft | 498 kts | 113° |
| 2026-04-30 07:12 | 33.05274 | 179.85013 | 35251 ft | 497 kts | 113° |
| 2026-04-30 07:12 | 33.02615 | 179.92617 | 35244 ft | 497 kts | 113° |
| 2026-04-30 07:13 | 32.99948 | -179.99790 | 35246 ft | 497 kts | 113° |
| 2026-04-30 07:13 | 32.97292 | -179.92198 | 35249 ft | 496 kts | 113° |
| 2026-04-30 07:14 | 32.94663 | -179.84597 | 35253 ft | 496 kts | 113° |
| 2026-04-30 07:14 | 32.92040 | -179.77009 | 35252 ft | 496 kts | 113° |
| 2026-04-30 07:15 | 32.89406 | -179.69424 | 35258 ft | 495 kts | 113° |
| 2026-04-30 07:15 | 32.86771 | -179.61862 | 35260 ft | 495 kts | 113° |
| 2026-04-30 07:16 | 32.84120 | -179.54299 | 35260 ft | 495 kts | 113° |
| 2026-04-30 07:16 | 32.81467 | -179.46752 | 35260 ft | 495 kts | 113° |
| 2026-04-30 07:17 | 32.78816 | -179.39213 | 35261 ft | 495 kts | 113° |
| 2026-04-30 07:18 | 32.74841 | -179.27900 | 35265 ft | 494 kts | 114° |
| 2026-04-30 07:18 | 32.72194 | -179.20425 | 35265 ft | 494 kts | 114° |
| 2026-04-30 07:19 | 32.69525 | -179.12907 | 35269 ft | 494 kts | 114° |
| 2026-04-30 07:19 | 32.66856 | -179.05389 | 35270 ft | 494 kts | 114° |
| 2026-04-30 07:20 | 32.64187 | -178.97879 | 35272 ft | 494 kts | 114° |
| 2026-04-30 07:20 | 32.61513 | -178.90375 | 35274 ft | 494 kts | 114° |
| 2026-04-30 07:21 | 32.58837 | -178.82877 | 35277 ft | 494 kts | 114° |
| 2026-04-30 07:21 | 32.56153 | -178.75387 | 35280 ft | 494 kts | 114° |
| 2026-04-30 07:22 | 32.52111 | -178.64159 | 35283 ft | 494 kts | 114° |
| 2026-04-30 07:22 | 32.49425 | -178.56676 | 35282 ft | 494 kts | 114° |
| 2026-04-30 07:23 | 32.46709 | -178.49154 | 35284 ft | 493 kts | 115° |
| 2026-04-30 07:23 | 32.44005 | -178.41685 | 35288 ft | 493 kts | 114° |
| 2026-04-30 07:24 | 32.41302 | -178.34214 | 35290 ft | 493 kts | 114° |
| 2026-04-30 07:24 | 32.38596 | -178.26754 | 35294 ft | 493 kts | 115° |
| 2026-04-30 07:25 | 32.35879 | -178.19309 | 35292 ft | 493 kts | 115° |
| 2026-04-30 07:25 | 32.33155 | -178.11867 | 35295 ft | 493 kts | 115° |
| 2026-04-30 07:26 | 32.30431 | -178.04430 | 35295 ft | 493 kts | 115° |
| 2026-04-30 07:26 | 32.27712 | -177.96991 | 35299 ft | 493 kts | 115° |
| 2026-04-30 07:27 | 32.24983 | -177.89561 | 35302 ft | 493 kts | 115° |
| 2026-04-30 07:27 | 32.22246 | -177.82146 | 35302 ft | 492 kts | 115° |
| 2026-04-30 07:28 | 32.19509 | -177.74739 | 35305 ft | 492 kts | 115° |
| 2026-04-30 07:28 | 32.16772 | -177.67326 | 35309 ft | 492 kts | 115° |
| 2026-04-30 07:29 | 32.14031 | -177.59927 | 35309 ft | 492 kts | 115° |
| 2026-04-30 07:29 | 32.11282 | -177.52537 | 35310 ft | 492 kts | 115° |
| 2026-04-30 07:30 | 32.07160 | -177.41455 | 35310 ft | 492 kts | 115° |
| 2026-04-30 07:31 | 32.04868 | -177.35321 | 35316 ft | 492 kts | 115° |
| 2026-04-30 07:31 | 32.02105 | -177.27952 | 35315 ft | 492 kts | 115° |
| 2026-04-30 07:32 | 31.99346 | -177.20587 | 35312 ft | 491 kts | 115° |
| 2026-04-30 07:32 | 31.96577 | -177.13220 | 35323 ft | 491 kts | 115° |
| 2026-04-30 07:33 | 31.93807 | -177.05871 | 35317 ft | 491 kts | 115° |
| 2026-04-30 07:33 | 31.91034 | -176.98521 | 35319 ft | 491 kts | 115° |
| 2026-04-30 07:34 | 31.88264 | -176.91169 | 35322 ft | 491 kts | 115° |
| 2026-04-30 07:34 | 31.85477 | -176.83834 | 35329 ft | 491 kts | 115° |
| 2026-04-30 07:35 | 31.82688 | -176.76505 | 35322 ft | 491 kts | 115° |
| 2026-04-30 07:35 | 31.79894 | -176.69182 | 35327 ft | 491 kts | 115° |
| 2026-04-30 07:36 | 31.77103 | -176.61858 | 35328 ft | 491 kts | 115° |
| 2026-04-30 07:36 | 31.74311 | -176.54543 | 35330 ft | 491 kts | 115° |
| 2026-04-30 07:37 | 31.71514 | -176.47230 | 35331 ft | 491 kts | 115° |
| 2026-04-30 07:37 | 31.68719 | -176.39927 | 35331 ft | 490 kts | 115° |
| 2026-04-30 07:38 | 31.65912 | -176.32627 | 35337 ft | 490 kts | 115° |
| 2026-04-30 07:38 | 31.63095 | -176.25337 | 35335 ft | 490 kts | 115° |
| 2026-04-30 07:39 | 31.60273 | -176.18059 | 35333 ft | 490 kts | 115° |
| 2026-04-30 07:39 | 31.57452 | -176.10778 | 35335 ft | 490 kts | 115° |
| 2026-04-30 07:40 | 31.54639 | -176.03498 | 35339 ft | 490 kts | 115° |
| 2026-04-30 07:40 | 31.51808 | -175.96232 | 35335 ft | 490 kts | 115° |
| 2026-04-30 07:41 | 31.48980 | -175.88973 | 35338 ft | 490 kts | 115° |
| 2026-04-30 07:41 | 31.46150 | -175.81711 | 35342 ft | 490 kts | 115° |
| 2026-04-30 07:42 | 31.43311 | -175.74457 | 35338 ft | 490 kts | 115° |
| 2026-04-30 07:42 | 31.40470 | -175.67208 | 35342 ft | 490 kts | 115° |
| 2026-04-30 07:43 | 31.37650 | -175.60014 | 35343 ft | 490 kts | 115° |
| 2026-04-30 07:43 | 31.34789 | -175.52730 | 35346 ft | 490 kts | 116° |
| 2026-04-30 07:44 | 31.31938 | -175.45498 | 35343 ft | 489 kts | 116° |
| 2026-04-30 07:44 | 31.29085 | -175.38277 | 35345 ft | 489 kts | 116° |
| 2026-04-30 07:45 | 31.26225 | -175.31059 | 35347 ft | 489 kts | 116° |
| 2026-04-30 07:45 | 31.23360 | -175.23845 | 35348 ft | 489 kts | 116° |
| 2026-04-30 07:46 | 31.20514 | -175.16686 | 35346 ft | 489 kts | 116° |
| 2026-04-30 07:46 | 31.17648 | -175.09478 | 35347 ft | 489 kts | 115° |
| 2026-04-30 07:47 | 31.14778 | -175.02278 | 35347 ft | 489 kts | 116° |
| 2026-04-30 07:47 | 31.11907 | -174.95093 | 35352 ft | 489 kts | 116° |
| 2026-04-30 07:48 | 31.09026 | -174.87908 | 35349 ft | 489 kts | 116° |
| 2026-04-30 07:48 | 31.06144 | -174.80733 | 35353 ft | 488 kts | 116° |
| 2026-04-30 07:49 | 31.03263 | -174.73561 | 35353 ft | 488 kts | 116° |
| 2026-04-30 07:49 | 31.00374 | -174.66397 | 35356 ft | 488 kts | 116° |
| 2026-04-30 07:50 | 30.97484 | -174.59245 | 35355 ft | 488 kts | 116° |
| 2026-04-30 07:50 | 30.94595 | -174.52096 | 35356 ft | 488 kts | 116° |
| 2026-04-30 07:51 | 30.91699 | -174.44957 | 35354 ft | 487 kts | 116° |
| 2026-04-30 07:51 | 30.88792 | -174.37828 | 35359 ft | 487 kts | 116° |
| 2026-04-30 07:52 | 30.85898 | -174.30701 | 35357 ft | 487 kts | 116° |
| 2026-04-30 07:52 | 30.83005 | -174.23576 | 35355 ft | 487 kts | 115° |
| 2026-04-30 07:53 | 30.80106 | -174.16459 | 35357 ft | 487 kts | 116° |
| 2026-04-30 07:53 | 30.77186 | -174.09368 | 35357 ft | 486 kts | 116° |
| 2026-04-30 07:54 | 30.74268 | -174.02274 | 35358 ft | 486 kts | 116° |
| 2026-04-30 07:54 | 30.71353 | -173.95183 | 35355 ft | 486 kts | 116° |
| 2026-04-30 07:55 | 30.68436 | -173.88095 | 35357 ft | 486 kts | 116° |
| 2026-04-30 07:55 | 30.65521 | -173.81021 | 35354 ft | 486 kts | 116° |
| 2026-04-30 07:56 | 30.62600 | -173.73948 | 35354 ft | 486 kts | 116° |
| 2026-04-30 07:56 | 30.59690 | -173.66936 | 35354 ft | 485 kts | 116° |
| 2026-04-30 07:57 | 30.56760 | -173.59872 | 35355 ft | 485 kts | 116° |
| 2026-04-30 07:57 | 30.53838 | -173.52816 | 35350 ft | 485 kts | 116° |
| 2026-04-30 07:58 | 30.50900 | -173.45769 | 35350 ft | 485 kts | 116° |
| 2026-04-30 07:58 | 30.47960 | -173.38730 | 35350 ft | 485 kts | 116° |
| 2026-04-30 07:59 | 30.45015 | -173.31693 | 35347 ft | 485 kts | 116° |
| 2026-04-30 07:59 | 30.42068 | -173.24657 | 35348 ft | 485 kts | 116° |
| 2026-04-30 08:00 | 30.37649 | -173.14111 | 35349 ft | 485 kts | 116° |
| 2026-04-30 08:00 | 30.34693 | -173.07094 | 35344 ft | 485 kts | 116° |
| 2026-04-30 08:01 | 30.31735 | -173.00077 | 35349 ft | 485 kts | 116° |
| 2026-04-30 08:01 | 30.28801 | -172.93119 | 35356 ft | 484 kts | 116° |
| 2026-04-30 08:02 | 30.24356 | -172.82622 | 35354 ft | 484 kts | 116° |
| 2026-04-30 08:03 | 30.18421 | -172.68659 | 35357 ft | 484 kts | 116° |
| 2026-04-30 08:04 | 30.15450 | -172.61691 | 35357 ft | 483 kts | 116° |
| 2026-04-30 08:04 | 30.12477 | -172.54728 | 35356 ft | 483 kts | 116° |
| 2026-04-30 08:05 | 30.09506 | -172.47762 | 35357 ft | 483 kts | 116° |
| 2026-04-30 08:05 | 30.06534 | -172.40806 | 35356 ft | 483 kts | 116° |
| 2026-04-30 08:06 | 30.03551 | -172.33865 | 35357 ft | 483 kts | 116° |
| 2026-04-30 08:06 | 30.00558 | -172.26928 | 35357 ft | 483 kts | 116° |
| 2026-04-30 08:07 | 29.97570 | -172.19995 | 35358 ft | 483 kts | 116° |
| 2026-04-30 08:07 | 29.94584 | -172.13063 | 35353 ft | 483 kts | 116° |
| 2026-04-30 08:08 | 29.91591 | -172.06130 | 35355 ft | 483 kts | 116° |
| 2026-04-30 08:08 | 29.88617 | -171.99248 | 35353 ft | 483 kts | 116° |
| 2026-04-30 08:09 | 29.85614 | -171.92325 | 35354 ft | 483 kts | 116° |
| 2026-04-30 08:09 | 29.82604 | -171.85407 | 35355 ft | 483 kts | 116° |
| 2026-04-30 08:10 | 29.79900 | -171.79194 | 35354 ft | 483 kts | 116° |
| 2026-04-30 08:10 | 29.76889 | -171.72289 | 35357 ft | 483 kts | 116° |
| 2026-04-30 08:11 | 29.73870 | -171.65384 | 35358 ft | 483 kts | 116° |
| 2026-04-30 08:11 | 29.70850 | -171.58492 | 35359 ft | 483 kts | 116° |
| 2026-04-30 08:12 | 29.67852 | -171.51645 | 35355 ft | 482 kts | 116° |
| 2026-04-30 08:12 | 29.64829 | -171.44759 | 35356 ft | 482 kts | 116° |
| 2026-04-30 08:13 | 29.61806 | -171.37889 | 35359 ft | 482 kts | 116° |
| 2026-04-30 08:13 | 29.58782 | -171.31018 | 35360 ft | 481 kts | 116° |
| 2026-04-30 08:14 | 29.55755 | -171.24159 | 35361 ft | 481 kts | 116° |
| 2026-04-30 08:14 | 29.52725 | -171.17314 | 35363 ft | 481 kts | 116° |
| 2026-04-30 08:15 | 29.49696 | -171.10476 | 35363 ft | 480 kts | 116° |
| 2026-04-30 08:15 | 29.46665 | -171.03648 | 35362 ft | 480 kts | 116° |
| 2026-04-30 08:16 | 29.43630 | -170.96831 | 35360 ft | 480 kts | 116° |
| 2026-04-30 08:16 | 29.40620 | -170.90058 | 35362 ft | 479 kts | 116° |
| 2026-04-30 08:17 | 29.37587 | -170.83250 | 35360 ft | 479 kts | 116° |
| 2026-04-30 08:17 | 29.34522 | -170.76408 | 35358 ft | 479 kts | 117° |
| 2026-04-30 08:18 | 29.31491 | -170.69669 | 35359 ft | 479 kts | 117° |
| 2026-04-30 08:18 | 29.28447 | -170.62882 | 35359 ft | 479 kts | 116° |
| 2026-04-30 08:19 | 29.25410 | -170.56099 | 35359 ft | 479 kts | 116° |
| 2026-04-30 08:19 | 29.22363 | -170.49320 | 35357 ft | 478 kts | 116° |
| 2026-04-30 08:20 | 29.19315 | -170.42555 | 35359 ft | 478 kts | 117° |
| 2026-04-30 08:20 | 29.16259 | -170.35791 | 35356 ft | 478 kts | 117° |
| 2026-04-30 08:21 | 29.13203 | -170.29037 | 35357 ft | 478 kts | 117° |
| 2026-04-30 08:21 | 29.10144 | -170.22288 | 35357 ft | 478 kts | 117° |
| 2026-04-30 08:22 | 29.07082 | -170.15542 | 35358 ft | 478 kts | 117° |
| 2026-04-30 08:22 | 29.04017 | -170.08800 | 35354 ft | 478 kts | 117° |
| 2026-04-30 08:23 | 29.00948 | -170.02060 | 35352 ft | 478 kts | 117° |
| 2026-04-30 08:23 | 28.97428 | -169.95628 | 35349 ft | 478 kts | 124° |
| 2026-04-30 08:24 | 28.93731 | -169.89386 | 35350 ft | 478 kts | 124° |
| 2026-04-30 08:24 | 28.90008 | -169.83096 | 35348 ft | 478 kts | 124° |
| 2026-04-30 08:25 | 28.86294 | -169.76807 | 35348 ft | 478 kts | 123° |
| 2026-04-30 08:25 | 28.82575 | -169.70521 | 35347 ft | 478 kts | 124° |
| 2026-04-30 08:26 | 28.78843 | -169.64245 | 35347 ft | 478 kts | 124° |
| 2026-04-30 08:26 | 28.75112 | -169.57976 | 35346 ft | 478 kts | 124° |
| 2026-04-30 08:27 | 28.71375 | -169.51707 | 35349 ft | 478 kts | 124° |
| 2026-04-30 08:27 | 28.67632 | -169.45449 | 35346 ft | 478 kts | 124° |
| 2026-04-30 08:28 | 28.63887 | -169.39190 | 35345 ft | 478 kts | 124° |
| 2026-04-30 08:28 | 28.60149 | -169.32928 | 35346 ft | 478 kts | 124° |
| 2026-04-30 08:29 | 28.56405 | -169.26672 | 35345 ft | 478 kts | 124° |
| 2026-04-30 08:29 | 28.52648 | -169.20421 | 35344 ft | 478 kts | 124° |
| 2026-04-30 08:30 | 28.48889 | -169.14173 | 35343 ft | 479 kts | 124° |
| 2026-04-30 08:30 | 28.45128 | -169.07931 | 35345 ft | 479 kts | 123° |
| 2026-04-30 08:31 | 28.41369 | -169.01689 | 35343 ft | 479 kts | 123° |
| 2026-04-30 08:31 | 28.37601 | -168.95446 | 35341 ft | 479 kts | 124° |
| 2026-04-30 08:32 | 28.33831 | -168.89214 | 35342 ft | 479 kts | 124° |
| 2026-04-30 08:32 | 28.30082 | -168.83030 | 35338 ft | 479 kts | 124° |
| 2026-04-30 08:33 | 28.26299 | -168.76809 | 35339 ft | 479 kts | 123° |
| 2026-04-30 08:33 | 28.22526 | -168.70592 | 35338 ft | 479 kts | 123° |
| 2026-04-30 08:34 | 28.18751 | -168.64378 | 35336 ft | 479 kts | 123° |
| 2026-04-30 08:34 | 28.14975 | -168.58164 | 35335 ft | 478 kts | 123° |
| 2026-04-30 08:35 | 28.11186 | -168.51966 | 35336 ft | 478 kts | 124° |
| 2026-04-30 08:35 | 28.07399 | -168.45780 | 35337 ft | 478 kts | 123° |
| 2026-04-30 08:36 | 28.03614 | -168.39587 | 35341 ft | 478 kts | 123° |
| 2026-04-30 08:36 | 27.99832 | -168.33409 | 35338 ft | 478 kts | 123° |
| 2026-04-30 08:37 | 27.96042 | -168.27241 | 35343 ft | 477 kts | 123° |
| 2026-04-30 08:37 | 27.92250 | -168.21077 | 35338 ft | 477 kts | 124° |
| 2026-04-30 08:38 | 27.88463 | -168.14918 | 35337 ft | 477 kts | 123° |
| 2026-04-30 08:38 | 27.84676 | -168.08763 | 35337 ft | 477 kts | 124° |
| 2026-04-30 08:39 | 27.80903 | -168.02657 | 35338 ft | 477 kts | 124° |
| 2026-04-30 08:39 | 27.77113 | -167.96516 | 35335 ft | 477 kts | 124° |
| 2026-04-30 08:40 | 27.73313 | -167.90380 | 35330 ft | 477 kts | 124° |
| 2026-04-30 08:40 | 27.69514 | -167.84254 | 35331 ft | 476 kts | 123° |
| 2026-04-30 08:41 | 27.65716 | -167.78126 | 35332 ft | 476 kts | 124° |
| 2026-04-30 08:41 | 27.61915 | -167.72004 | 35332 ft | 476 kts | 124° |
| 2026-04-30 08:42 | 27.58100 | -167.65893 | 35327 ft | 476 kts | 124° |
| 2026-04-30 08:42 | 27.54288 | -167.59784 | 35327 ft | 477 kts | 124° |
| 2026-04-30 08:43 | 27.50479 | -167.53675 | 35324 ft | 477 kts | 124° |
| 2026-04-30 08:43 | 27.46665 | -167.47562 | 35322 ft | 477 kts | 124° |
| 2026-04-30 08:44 | 27.42871 | -167.41499 | 35324 ft | 477 kts | 124° |
| 2026-04-30 08:44 | 27.39046 | -167.35400 | 35322 ft | 477 kts | 124° |
| 2026-04-30 08:45 | 27.35213 | -167.29309 | 35320 ft | 477 kts | 124° |
| 2026-04-30 08:45 | 27.31382 | -167.23211 | 35318 ft | 477 kts | 124° |
| 2026-04-30 08:46 | 27.27550 | -167.17122 | 35324 ft | 477 kts | 124° |
| 2026-04-30 08:46 | 27.23713 | -167.11031 | 35321 ft | 477 kts | 123° |
| 2026-04-30 08:47 | 27.19882 | -167.04943 | 35319 ft | 477 kts | 123° |
| 2026-04-30 08:47 | 27.16044 | -166.98858 | 35319 ft | 477 kts | 123° |
| 2026-04-30 08:48 | 27.12192 | -166.92786 | 35319 ft | 477 kts | 124° |
| 2026-04-30 08:48 | 27.08335 | -166.86717 | 35316 ft | 478 kts | 123° |
| 2026-04-30 08:49 | 27.04483 | -166.80644 | 35315 ft | 477 kts | 123° |
| 2026-04-30 08:49 | 27.00633 | -166.74571 | 35315 ft | 478 kts | 123° |
| 2026-04-30 08:50 | 26.96775 | -166.68509 | 35318 ft | 478 kts | 123° |
| 2026-04-30 08:50 | 26.92912 | -166.62449 | 35311 ft | 478 kts | 123° |
| 2026-04-30 08:51 | 26.89048 | -166.56391 | 35310 ft | 478 kts | 123° |
| 2026-04-30 08:51 | 26.85179 | -166.50341 | 35310 ft | 478 kts | 123° |
| 2026-04-30 08:52 | 26.81308 | -166.44292 | 35311 ft | 478 kts | 123° |
| 2026-04-30 08:52 | 26.77431 | -166.38248 | 35308 ft | 478 kts | 123° |
| 2026-04-30 08:53 | 26.73557 | -166.32199 | 35309 ft | 478 kts | 123° |
| 2026-04-30 08:53 | 26.70339 | -166.27178 | 35312 ft | 478 kts | 123° |
| 2026-04-30 08:54 | 26.65830 | -166.20156 | 35310 ft | 478 kts | 123° |
| 2026-04-30 08:54 | 26.61944 | -166.14122 | 35309 ft | 478 kts | 123° |
| 2026-04-30 08:55 | 26.58680 | -166.09072 | 35310 ft | 478 kts | 123° |
| 2026-04-30 08:55 | 26.54783 | -166.03048 | 35305 ft | 478 kts | 123° |
| 2026-04-30 08:56 | 26.50885 | -165.97023 | 35302 ft | 478 kts | 123° |
| 2026-04-30 08:56 | 26.47014 | -165.91043 | 35304 ft | 479 kts | 123° |
| 2026-04-30 08:57 | 26.43116 | -165.85021 | 35303 ft | 479 kts | 123° |
| 2026-04-30 08:57 | 26.39215 | -165.79001 | 35307 ft | 479 kts | 123° |
| 2026-04-30 08:58 | 26.35308 | -165.72988 | 35300 ft | 479 kts | 123° |
| 2026-04-30 08:58 | 26.31399 | -165.66970 | 35304 ft | 479 kts | 123° |
| 2026-04-30 08:59 | 26.27490 | -165.60957 | 35305 ft | 479 kts | 123° |
| 2026-04-30 08:59 | 26.23570 | -165.54956 | 35303 ft | 479 kts | 124° |
| 2026-04-30 09:00 | 26.19641 | -165.48960 | 35296 ft | 479 kts | 123° |
| 2026-04-30 09:00 | 26.15721 | -165.42967 | 35296 ft | 479 kts | 123° |
| 2026-04-30 09:01 | 26.11800 | -165.36974 | 35292 ft | 479 kts | 123° |
| 2026-04-30 09:01 | 26.07878 | -165.30983 | 35294 ft | 479 kts | 123° |
| 2026-04-30 09:02 | 26.01984 | -165.22014 | 35289 ft | 479 kts | 124° |
| 2026-04-30 09:02 | 25.98042 | -165.16038 | 35291 ft | 479 kts | 123° |
| 2026-04-30 09:03 | 25.94109 | -165.10061 | 35286 ft | 479 kts | 123° |
| 2026-04-30 09:03 | 25.90174 | -165.04089 | 35285 ft | 479 kts | 123° |
| 2026-04-30 09:04 | 25.86231 | -164.98118 | 35287 ft | 479 kts | 123° |
| 2026-04-30 09:04 | 25.82286 | -164.92159 | 35284 ft | 479 kts | 123° |
| 2026-04-30 09:05 | 25.78339 | -164.86200 | 35284 ft | 479 kts | 123° |
| 2026-04-30 09:05 | 25.74391 | -164.80248 | 35285 ft | 479 kts | 123° |
| 2026-04-30 09:06 | 25.70466 | -164.74338 | 35285 ft | 479 kts | 123° |
| 2026-04-30 09:06 | 25.66517 | -164.68392 | 35281 ft | 479 kts | 123° |
| 2026-04-30 09:07 | 25.62534 | -164.62405 | 35281 ft | 479 kts | 123° |
| 2026-04-30 09:07 | 25.58577 | -164.56467 | 35280 ft | 479 kts | 123° |
| 2026-04-30 09:08 | 25.54609 | -164.50529 | 35279 ft | 479 kts | 123° |
| 2026-04-30 09:08 | 25.50676 | -164.44630 | 35277 ft | 479 kts | 123° |
| 2026-04-30 09:09 | 25.46713 | -164.38699 | 35278 ft | 479 kts | 123° |
| 2026-04-30 09:09 | 25.42736 | -164.32777 | 35275 ft | 479 kts | 123° |
| 2026-04-30 09:10 | 25.41396 | -164.30781 | 35274 ft | 479 kts | 123° |